Time;durP1;ratioP1;P1;durP2;ratioP2;P2;SDS_P1;SDS_P2;PMS_P1;PMS_P2;Temp;Humidity;BMP_temperature;BMP_pressure;BME280_temperature;BME280_humidity;BME280_pressure;Samples;Min_cycle;Max_cycle;Signal;HPM_P1;HPM_P2
2023/07/25 08:09:18;;;;;;;12.50;3.90;;;;;;;32.84;34.28;97605.09;54433;1279;1017346;-63
2023/07/25 08:12:20;;;;;;;12.80;3.90;;;;;;;33.23;34.95;97600.23;67733;1279;1018152;-62
2023/07/25 08:15:23;;;;;;;14.30;3.70;;;;;;;33.18;34.17;97602.98;67729;1279;1016007;-62
2023/07/25 08:18:25;;;;;;;12.10;3.60;;;;;;;33.13;33.87;97619.42;67718;1279;1018170;-64
2023/07/25 08:21:28;;;;;;;11.60;3.60;;;;;;;33.43;33.46;97621.81;67722;1279;1016085;-66
2023/07/25 08:24:32;;;;;;;16.70;3.90;;;;;;;33.56;33.24;97623.06;67760;1279;1017449;-66
2023/07/25 08:27:34;;;;;;;10.40;3.60;;;;;;;33.59;33.50;97635.90;67766;1279;1016922;-66
2023/07/25 08:30:37;;;;;;;11.00;3.00;;;;;;;33.52;33.12;97650.08;67754;1279;1016850;-65
2023/07/25 08:33:42;;;;;;;14.90;3.70;;;;;;;33.81;32.81;97653.61;67771;1279;1016371;-66
2023/07/25 08:36:45;;;;;;;10.50;3.40;;;;;;;34.16;32.20;97657.49;67691;1280;1016499;-65
2023/07/25 08:39:47;;;;;;;11.90;3.40;;;;;;;34.11;31.30;97659.08;67646;1280;1016111;-65
2023/07/25 08:42:50;;;;;;;8.90;2.80;;;;;;;33.84;32.35;97656.27;67638;1280;1016338;-64
2023/07/25 08:45:52;;;;;;;7.20;2.90;;;;;;;33.92;32.50;97646.27;67759;1280;1016265;-65
2023/07/25 08:48:55;;;;;;;11.30;3.20;;;;;;;34.27;32.06;97643.98;67699;1280;1017861;-64
2023/07/25 08:51:59;;;;;;;9.90;3.10;;;;;;;34.37;31.52;97640.19;67665;1280;1016538;-64
2023/07/25 08:55:01;;;;;;;13.40;3.40;;;;;;;34.33;31.49;97642.27;67638;1280;1016205;-64
2023/07/25 08:58:04;;;;;;;12.10;3.00;;;;;;;33.95;31.58;97631.59;67678;1280;1017165;-64
2023/07/25 09:01:06;;;;;;;14.90;3.60;;;;;;;33.73;31.14;97632.52;67701;1280;1016522;-64
2023/07/25 09:04:09;;;;;;;11.00;3.10;;;;;;;33.74;30.71;97629.52;67685;1280;1016440;-66
2023/07/25 09:07:12;;;;;;;10.00;3.40;;;;;;;34.22;30.86;97620.48;67649;1279;1016386;-64
2023/07/25 09:10:14;;;;;;;13.10;3.40;;;;;;;34.43;30.78;97629.30;67759;1279;1016536;-64
2023/07/25 09:13:16;;;;;;;10.70;3.30;;;;;;;35.06;31.47;97620.11;67781;1279;1016279;-65
2023/07/25 09:16:19;;;;;;;13.80;3.40;;;;;;;34.88;30.87;97615.15;67788;1279;1016177;-65
2023/07/25 09:19:21;;;;;;;12.60;3.60;;;;;;;34.84;31.24;97629.39;67739;1279;1016286;-64
2023/07/25 09:22:24;;;;;;;15.80;3.70;;;;;;;34.53;31.55;97623.55;67718;1279;1016910;-65
2023/07/25 09:25:26;;;;;;;10.90;3.50;;;;;;;34.53;31.16;97623.00;67750;1279;1017251;-64
2023/07/25 09:28:29;;;;;;;11.80;3.80;;;;;;;34.86;31.55;97618.93;67797;1279;1018175;-64
2023/07/25 09:31:31;;;;;;;15.60;3.90;;;;;;;35.64;29.99;97622.04;67739;1279;1016682;-64
2023/07/25 09:34:34;;;;;;;14.50;4.10;;;;;;;35.35;31.11;97629.08;67722;1279;1018589;-63
2023/07/25 09:37:37;;;;;;;10.80;3.60;;;;;;;35.48;30.39;97635.98;67743;1279;1016808;-64
2023/07/25 09:40:39;;;;;;;13.90;3.80;;;;;;;35.42;30.80;97634.28;67767;1279;1016875;-64
2023/07/25 09:43:43;;;;;;;13.10;3.60;;;;;;;35.66;30.04;97622.07;67702;1279;1016403;-64
2023/07/25 09:46:45;;;;;;;11.90;3.90;;;;;;;35.68;30.28;97624.95;67749;1279;1016722;-64
2023/07/25 09:49:48;;;;;;;17.10;3.90;;;;;;;35.87;29.95;97618.02;67750;1279;1016055;-64
2023/07/25 09:52:50;;;;;;;8.80;3.60;;;;;;;35.83;29.50;97618.54;67738;1279;1016778;-64
2023/07/25 09:55:53;;;;;;;10.80;3.70;;;;;;;36.18;28.96;97603.30;67749;1279;1016253;-64
2023/07/25 09:58:55;;;;;;;13.80;3.90;;;;;;;36.39;29.21;97600.50;67732;1279;1017084;-64
2023/07/25 10:01:58;;;;;;;12.10;3.70;;;;;;;36.55;29.30;97613.20;67733;1279;1016477;-63
2023/07/25 10:05:00;;;;;;;11.10;3.60;;;;;;;36.61;29.36;97609.24;67747;1279;1016519;-64
2023/07/25 10:08:03;;;;;;;12.60;4.30;;;;;;;36.53;29.52;97605.71;67807;1279;1016510;-63
2023/07/25 10:11:05;;;;;;;11.20;3.60;;;;;;;36.22;29.24;97604.13;67809;1279;1016863;-64
2023/07/25 10:14:08;;;;;;;9.30;3.50;;;;;;;36.39;29.39;97602.29;67720;1279;1016435;-64
2023/07/25 10:17:11;;;;;;;11.20;3.40;;;;;;;36.58;29.07;97598.25;67749;1279;1016477;-64
2023/07/25 10:20:13;;;;;;;12.30;3.70;;;;;;;36.50;28.36;97599.23;67782;1279;1016289;-64
2023/07/25 10:23:16;;;;;;;13.10;3.90;;;;;;;36.38;28.73;97593.79;67727;1279;1016449;-63
2023/07/25 10:26:19;;;;;;;9.60;3.50;;;;;;;36.50;28.90;97591.19;67734;1279;1016369;-63
2023/07/25 10:29:22;;;;;;;11.60;3.80;;;;;;;36.80;28.15;97585.58;67754;1279;1016377;-63
2023/07/25 10:32:24;;;;;;;10.20;3.60;;;;;;;36.90;28.04;97585.71;67780;1279;1016823;-65
2023/07/25 10:35:27;;;;;;;11.60;3.70;;;;;;;36.73;27.99;97591.61;67763;1279;1017917;-65
2023/07/25 10:38:29;;;;;;;13.90;3.90;;;;;;;36.23;28.15;97604.38;67791;1279;1016547;-63
2023/07/25 10:41:32;;;;;;;12.60;3.80;;;;;;;36.21;28.36;97600.70;67736;1279;1016163;-64
2023/07/25 10:44:34;;;;;;;10.50;3.80;;;;;;;36.11;28.88;97605.17;67712;1279;1016361;-64
2023/07/25 10:47:37;;;;;;;12.10;3.70;;;;;;;36.14;29.16;97601.59;67733;1279;1016381;-64
2023/07/25 10:50:39;;;;;;;12.90;3.90;;;;;;;36.36;28.65;97600.81;67795;1279;1016407;-65
2023/07/25 10:53:41;;;;;;;11.80;3.40;;;;;;;36.22;28.56;97599.50;67772;1279;1016138;-64
2023/07/25 10:56:44;;;;;;;13.50;3.90;;;;;;;36.11;28.55;97584.98;67750;1279;1016438;-64
2023/07/25 10:59:46;;;;;;;12.20;3.90;;;;;;;36.91;29.06;97581.09;67707;1279;1017997;-65
2023/07/25 11:02:49;;;;;;;13.00;3.80;;;;;;;37.46;27.61;97573.86;67732;1279;1016374;-64
2023/07/25 11:05:51;;;;;;;10.90;3.70;;;;;;;37.71;27.26;97562.59;67736;1279;1016308;-64
2023/07/25 11:08:54;;;;;;;12.60;3.90;;;;;;;37.89;26.93;97550.55;67738;1279;1016161;-64
2023/07/25 11:11:56;;;;;;;14.90;4.10;;;;;;;37.52;27.69;97538.31;67696;1279;1016397;-65
2023/07/25 11:14:59;;;;;;;12.70;3.70;;;;;;;37.56;27.59;97530.09;67741;1279;1016349;-65
2023/07/25 11:18:01;;;;;;;11.60;3.80;;;;;;;37.86;26.97;97518.10;67776;1279;1016663;-65
2023/07/25 11:21:04;;;;;;;11.70;3.80;;;;;;;37.39;26.90;97519.95;67699;1279;1016403;-66
2023/07/25 11:24:06;;;;;;;12.30;4.40;;;;;;;37.42;27.30;97528.87;67743;1279;1016815;-64
2023/07/25 11:27:09;;;;;;;14.50;4.30;;;;;;;37.33;27.54;97529.95;67782;1279;1016414;-64
2023/07/25 11:30:12;;;;;;;14.10;4.10;;;;;;;36.95;27.54;97534.10;67735;1279;1019781;-64
2023/07/25 11:33:14;;;;;;;14.30;4.10;;;;;;;36.81;27.35;97533.55;67645;1280;1017016;-64
2023/07/25 11:36:17;;;;;;;11.90;3.80;;;;;;;36.84;27.93;97531.59;67629;1280;1015916;-64
2023/07/25 11:39:19;;;;;;;15.00;4.50;;;;;;;36.93;27.90;97532.99;67660;1280;1016540;-65
2023/07/25 11:42:22;;;;;;;12.80;4.30;;;;;;;36.65;28.23;97528.80;67685;1280;1016474;-64
2023/07/25 11:45:25;;;;;;;16.00;4.30;;;;;;;36.12;28.31;97527.77;67670;1280;1015899;-64
2023/07/25 11:48:27;;;;;;;14.10;3.90;;;;;;;35.93;28.29;97523.10;67681;1280;1016232;-64
2023/07/25 11:51:30;;;;;;;13.10;3.90;;;;;;;35.99;29.47;97516.33;67690;1280;1016955;-64
2023/07/25 11:54:33;;;;;;;17.10;4.30;;;;;;;35.97;29.11;97510.46;67639;1280;1016386;-64
2023/07/25 11:57:36;;;;;;;12.70;4.10;;;;;;;36.11;28.76;97502.76;67653;1280;1016843;-64
2023/07/25 12:00:38;;;;;;;12.20;3.80;;;;;;;35.61;29.43;97505.27;67654;1280;1016315;-64
2023/07/25 12:03:41;;;;;;;18.00;4.20;;;;;;;35.20;28.90;97506.09;67644;1280;1016271;-65
2023/07/25 12:06:43;;;;;;;13.50;4.00;;;;;;;34.78;29.73;97506.40;67613;1280;1016797;-63
2023/07/25 12:09:45;;;;;;;14.20;3.80;;;;;;;34.56;30.60;97503.66;67706;1279;1016520;-64
2023/07/25 12:12:48;;;;;;;12.60;3.60;;;;;;;34.41;30.42;97499.45;67776;1279;1016406;-65
2023/07/25 12:15:50;;;;;;;13.50;4.20;;;;;;;34.33;30.31;97492.52;67750;1279;1016235;-63
2023/07/25 12:18:53;;;;;;;12.10;3.80;;;;;;;34.19;30.47;97490.98;67724;1279;1016420;-64
2023/07/25 12:21:55;;;;;;;12.20;3.70;;;;;;;33.99;31.00;97483.20;67716;1279;1018097;-66
2023/07/25 12:24:57;;;;;;;13.80;3.60;;;;;;;34.04;31.51;97475.17;67772;1278;1016978;-65
2023/07/25 12:28:00;;;;;;;15.10;4.30;;;;;;;34.06;32.04;97465.77;67773;1279;1018337;-64
2023/07/25 12:31:02;;;;;;;10.80;3.80;;;;;;;34.07;32.04;97460.09;67768;1279;1018255;-65
2023/07/25 12:34:05;;;;;;;12.30;3.90;;;;;;;34.34;32.40;97463.13;67755;1279;1018015;-66
2023/07/25 12:37:07;;;;;;;13.40;3.80;;;;;;;33.82;32.53;97463.40;67723;1279;1016036;-65
2023/07/25 12:40:10;;;;;;;13.30;4.10;;;;;;;33.36;32.91;97464.06;67702;1279;1016497;-66
2023/07/25 12:43:12;;;;;;;17.30;4.10;;;;;;;33.28;33.08;97462.66;67745;1279;1016422;-66
2023/07/25 12:46:14;;;;;;;13.60;3.80;;;;;;;33.12;33.61;97459.02;67623;1279;1017373;-65
2023/07/25 12:49:17;;;;;;;12.10;3.80;;;;;;;33.20;33.50;97458.61;67501;1279;1016591;-65
2023/07/25 12:52:19;;;;;;;11.40;3.60;;;;;;;33.33;33.43;97452.38;67512;1279;1016750;-65
2023/07/25 12:55:21;;;;;;;15.40;4.30;;;;;;;33.31;33.57;97450.92;67606;1279;1016343;-65
2023/07/25 12:58:24;;;;;;;12.50;3.90;;;;;;;33.17;33.52;97450.94;67621;1279;1017294;-66
2023/07/25 13:01:26;;;;;;;12.70;4.10;;;;;;;32.85;33.95;97462.63;67706;1279;1016606;-65
2023/07/25 13:04:30;;;;;;;14.00;3.90;;;;;;;32.34;34.16;97477.44;67772;1279;1018899;-65
2023/07/25 13:07:33;;;;;;;15.50;4.40;;;;;;;31.80;33.33;97494.44;67753;1279;1017029;-65
2023/07/25 13:10:35;;;;;;;16.40;4.80;;;;;;;31.51;33.35;97497.07;67735;1279;1016367;-65
2023/07/25 13:13:38;;;;;;;14.60;4.50;;;;;;;31.55;34.01;97497.42;67810;1279;1016567;-65
2023/07/25 13:16:40;;;;;;;17.30;4.50;;;;;;;31.72;34.50;97499.00;67825;1279;1016232;-65
2023/07/25 13:19:42;;;;;;;16.40;4.50;;;;;;;31.22;36.79;97504.02;67801;1279;1016472;-65
2023/07/25 13:22:45;;;;;;;13.40;4.00;;;;;;;30.91;39.18;97517.08;67742;1279;1016438;-66
2023/07/25 13:25:50;;;;;;;15.80;4.90;;;;;;;30.23;41.69;97533.23;67697;1279;1016719;-66
2023/07/25 13:28:52;;;;;;;15.00;4.70;;;;;;;29.89;42.58;97525.92;67779;1279;1016258;-66
2023/07/25 13:31:55;;;;;;;15.10;4.40;;;;;;;29.47;44.33;97532.44;67742;1279;1016478;-66
2023/07/25 13:34:57;;;;;;;18.00;4.70;;;;;;;29.09;45.37;97530.98;67735;1279;1016426;-66
2023/07/25 13:37:59;;;;;;;15.50;5.00;;;;;;;29.21;45.34;97530.70;67769;1279;1016429;-65
2023/07/25 13:41:02;;;;;;;16.30;4.90;;;;;;;28.96;45.72;97520.94;67761;1279;1016464;-65
2023/07/25 13:44:04;;;;;;;18.40;4.90;;;;;;;28.90;46.22;97518.68;67768;1279;1016355;-66
2023/07/25 13:47:06;;;;;;;18.40;5.10;;;;;;;28.94;46.94;97517.05;67793;1279;1016112;-65
2023/07/25 13:50:09;;;;;;;16.50;4.40;;;;;;;28.89;47.13;97517.95;67775;1279;1018848;-65
2023/07/25 13:53:11;;;;;;;17.80;5.40;;;;;;;28.64;47.64;97514.75;67739;1279;1016320;-65
2023/07/25 13:56:14;;;;;;;17.00;5.30;;;;;;;28.66;47.66;97513.29;67756;1279;1016315;-66
2023/07/25 13:59:16;;;;;;;16.90;4.80;;;;;;;28.90;47.72;97512.70;67785;1279;1016123;-66
2023/07/25 14:02:18;;;;;;;17.00;5.10;;;;;;;28.91;47.52;97512.27;67786;1279;1016441;-66
2023/07/25 14:05:23;;;;;;;17.20;4.90;;;;;;;29.09;47.47;97507.48;67765;1279;1016723;-65
2023/07/25 14:08:25;;;;;;;16.50;5.00;;;;;;;29.12;47.91;97500.96;67784;1279;1016291;-65
2023/07/25 14:11:28;;;;;;;17.30;4.90;;;;;;;29.16;47.60;97501.79;67720;1279;1016843;-65
2023/07/25 14:14:30;;;;;;;18.20;5.00;;;;;;;29.27;46.49;97496.25;67781;1279;1016564;-65
2023/07/25 14:17:33;;;;;;;18.00;5.20;;;;;;;29.17;46.47;97489.55;67797;1279;1016450;-65
2023/07/25 14:20:37;;;;;;;16.80;4.80;;;;;;;29.17;46.79;97487.92;67732;1279;1016866;-65
2023/07/25 14:23:41;;;;;;;12.70;4.30;;;;;;;29.21;46.72;97494.31;67736;1279;1016268;-65
2023/07/25 14:26:43;;;;;;;15.70;4.80;;;;;;;29.12;46.73;97498.09;67778;1279;1016191;-65
2023/07/25 14:29:46;;;;;;;16.10;5.30;;;;;;;29.53;46.20;97496.73;67701;1279;1016037;-65
2023/07/25 14:32:48;;;;;;;16.30;4.60;;;;;;;29.45;46.54;97495.80;67777;1279;1018056;-65
2023/07/25 14:35:51;;;;;;;17.60;4.90;;;;;;;29.50;46.98;97492.30;67763;1279;1016464;-65
2023/07/25 14:38:53;;;;;;;18.10;5.30;;;;;;;29.70;46.53;97491.02;67789;1279;1019382;-65
2023/07/25 14:41:55;;;;;;;17.10;5.00;;;;;;;29.58;46.70;97492.16;67740;1279;1016240;-65
2023/07/25 14:44:58;;;;;;;16.00;4.90;;;;;;;29.24;47.22;97494.73;67726;1279;1016460;-65
2023/07/25 14:48:00;;;;;;;17.90;5.20;;;;;;;29.02;48.05;97502.73;67742;1279;1015788;-65
2023/07/25 14:51:03;;;;;;;16.90;4.80;;;;;;;28.95;48.21;97506.67;67734;1279;1016383;-65
2023/07/25 14:54:05;;;;;;;15.80;4.90;;;;;;;28.96;48.46;97512.67;67794;1279;1016174;-65
2023/07/25 14:57:07;;;;;;;18.40;5.60;;;;;;;28.86;48.75;97512.55;67800;1279;1017630;-65
2023/07/25 15:00:10;;;;;;;17.80;5.60;;;;;;;29.11;48.22;97512.88;67753;1279;1018126;-65
2023/07/25 15:03:12;;;;;;;20.10;5.80;;;;;;;29.28;47.91;97515.16;67761;1279;1016254;-65
2023/07/25 15:06:15;;;;;;;17.40;5.30;;;;;;;29.16;47.94;97510.41;67769;1279;1018359;-65
2023/07/25 15:09:17;;;;;;;15.80;5.00;;;;;;;29.32;47.50;97510.42;67783;1279;1016481;-65
2023/07/25 15:12:20;;;;;;;15.70;4.90;;;;;;;29.36;47.46;97512.04;67792;1279;1016446;-65
2023/07/25 15:15:22;;;;;;;18.50;5.60;;;;;;;29.40;47.43;97515.18;67817;1279;1016518;-65
2023/07/25 15:18:26;;;;;;;19.40;5.70;;;;;;;29.52;47.52;97513.95;67738;1279;1016235;-65
2023/07/25 15:21:29;;;;;;;18.40;5.50;;;;;;;29.53;47.77;97513.65;67751;1279;1016161;-65
2023/07/25 15:24:31;;;;;;;16.80;5.20;;;;;;;29.66;47.42;97512.91;67761;1279;1016333;-66
2023/07/25 15:27:33;;;;;;;17.60;5.10;;;;;;;29.83;47.20;97515.14;67766;1279;1016330;-65
2023/07/25 15:30:36;;;;;;;16.30;4.90;;;;;;;29.77;46.83;97512.67;67788;1279;1016205;-65
2023/07/25 15:33:38;;;;;;;18.50;5.50;;;;;;;29.76;47.23;97518.98;67756;1279;1016445;-65
2023/07/25 15:36:41;;;;;;;17.10;5.70;;;;;;;29.92;47.35;97520.95;67738;1279;1016465;-65
2023/07/25 15:39:43;;;;;;;18.70;6.00;;;;;;;30.11;46.76;97527.66;67751;1279;1016438;-65
2023/07/25 15:42:45;;;;;;;17.80;4.80;;;;;;;29.70;47.10;97531.66;67819;1279;1016486;-65
2023/07/25 15:45:48;;;;;;;18.90;5.20;;;;;;;29.46;47.48;97538.48;67809;1279;1015747;-65
2023/07/25 15:48:50;;;;;;;19.90;6.20;;;;;;;29.30;48.10;97545.52;67772;1279;1016443;-66
2023/07/25 15:51:53;;;;;;;21.20;6.80;;;;;;;29.19;48.88;97553.49;67743;1279;1016202;-66
2023/07/25 15:54:55;;;;;;;18.40;5.30;;;;;;;29.19;48.56;97562.61;67754;1279;1016394;-65
2023/07/25 15:57:58;;;;;;;17.20;5.30;;;;;;;29.00;48.94;97560.89;67791;1279;1016518;-66
2023/07/25 16:01:00;;;;;;;17.80;5.60;;;;;;;28.93;49.05;97563.62;67807;1279;1016408;-65
2023/07/25 16:04:02;;;;;;;19.10;5.50;;;;;;;28.97;49.21;97562.83;67810;1279;1016404;-65
2023/07/25 16:07:05;;;;;;;17.50;5.40;;;;;;;29.10;48.67;97563.71;67773;1279;1016007;-64
2023/07/25 16:10:07;;;;;;;18.50;6.00;;;;;;;29.24;48.23;97561.73;67739;1279;1016447;-65
2023/07/25 16:13:09;;;;;;;22.90;6.50;;;;;;;29.40;47.82;97556.70;67752;1279;1016491;-65
2023/07/25 16:16:12;;;;;;;17.00;5.30;;;;;;;29.37;47.84;97554.45;67781;1279;1018282;-64
2023/07/25 16:19:15;;;;;;;18.70;5.50;;;;;;;29.11;48.53;97558.48;67810;1279;1016496;-65
2023/07/25 16:22:18;;;;;;;17.60;5.10;;;;;;;29.03;48.66;97560.09;67785;1279;1017028;-65
2023/07/25 16:25:20;;;;;;;18.30;5.40;;;;;;;29.12;48.34;97550.40;67786;1279;1016401;-64
2023/07/25 16:28:23;;;;;;;18.80;5.50;;;;;;;29.10;48.45;97549.77;67807;1279;1016453;-64
2023/07/25 16:31:25;;;;;;;17.50;5.70;;;;;;;29.22;48.34;97535.83;67791;1279;1016342;-65
2023/07/25 16:34:29;;;;;;;16.90;5.60;;;;;;;29.19;48.28;97529.26;67741;1279;1016502;-65
2023/07/25 16:37:32;;;;;;;19.10;5.60;;;;;;;29.20;48.39;97527.80;67753;1279;1016135;-65
2023/07/25 16:40:34;;;;;;;17.20;5.60;;;;;;;29.36;48.03;97523.81;67760;1279;1016413;-65
2023/07/25 16:43:36;;;;;;;19.20;6.30;;;;;;;29.30;48.44;97517.41;67800;1279;1016471;-65
2023/07/25 16:46:39;;;;;;;18.40;5.60;;;;;;;29.12;48.88;97521.58;67784;1276;1016472;-65
2023/07/25 16:49:41;;;;;;;16.90;5.90;;;;;;;29.08;48.83;97523.02;67786;1279;1015966;-65
2023/07/25 16:52:43;;;;;;;19.40;6.60;;;;;;;28.90;49.60;97518.56;67751;1279;1017088;-65
2023/07/25 16:55:46;;;;;;;18.70;6.40;;;;;;;28.97;49.58;97506.23;67722;1279;1016548;-65
2023/07/25 16:58:48;;;;;;;18.40;6.60;;;;;;;29.22;48.64;97501.44;67791;1279;1016422;-64
2023/07/25 17:01:51;;;;;;;19.10;6.40;;;;;;;29.31;48.62;97503.64;67784;1279;1016470;-64
2023/07/25 17:04:54;;;;;;;17.80;5.40;;;;;;;29.42;48.45;97509.41;67777;1279;1016405;-64
2023/07/25 17:07:56;;;;;;;19.30;6.20;;;;;;;29.15;48.53;97508.73;67729;1279;1016601;-65
2023/07/25 17:11:04;;;;;;;18.20;5.50;;;;;;;29.11;48.67;97500.08;67757;1279;1016222;-65
2023/07/25 17:14:06;;;;;;;19.90;6.10;;;;;;;29.16;48.79;97497.58;67735;1279;1016263;-65
2023/07/25 17:17:08;;;;;;;18.40;6.20;;;;;;;29.10;48.97;97497.69;67750;1279;1016347;-65
2023/07/25 17:20:11;;;;;;;18.90;6.00;;;;;;;28.95;49.52;97498.09;67792;1279;1016020;-65
2023/07/25 17:23:14;;;;;;;18.60;6.10;;;;;;;28.91;49.72;97502.02;67758;1279;1016370;-64
2023/07/25 17:26:16;;;;;;;16.60;5.80;;;;;;;28.79;49.86;97499.94;67738;1279;1016036;-65
2023/07/25 17:29:19;;;;;;;21.00;5.50;;;;;;;28.96;49.87;97503.66;67799;1279;1020810;-64
2023/07/25 17:32:22;;;;;;;18.60;6.20;;;;;;;28.92;49.79;97505.19;67791;1279;1018202;-65
2023/07/25 17:35:24;;;;;;;17.50;5.50;;;;;;;28.90;49.81;97507.73;67740;1279;1016397;-65
2023/07/25 17:38:27;;;;;;;17.50;5.60;;;;;;;28.66;50.56;97510.84;67775;1279;1016468;-65
2023/07/25 17:41:29;;;;;;;17.50;5.50;;;;;;;28.86;50.08;97506.36;67778;1279;1019143;-65
2023/07/25 17:44:32;;;;;;;17.80;5.90;;;;;;;28.57;50.71;97501.25;67754;1279;1016491;-65
2023/07/25 17:47:34;;;;;;;18.70;5.90;;;;;;;28.80;50.46;97489.70;67753;1279;1016636;-65
2023/07/25 17:50:37;;;;;;;16.20;5.30;;;;;;;29.07;49.96;97480.16;67781;1279;1016452;-65
2023/07/25 17:53:39;;;;;;;19.00;5.50;;;;;;;29.30;49.43;97482.09;67785;1279;1016297;-65
2023/07/25 17:56:41;;;;;;;20.30;5.40;;;;;;;29.33;49.12;97488.23;67805;1279;1016281;-65
2023/07/25 17:59:44;;;;;;;16.20;4.70;;;;;;;29.28;49.02;97493.34;67754;1279;1016490;-66
2023/07/25 18:02:46;;;;;;;19.00;5.50;;;;;;;29.46;48.96;97500.14;67741;1279;1016480;-65
2023/07/25 18:05:49;;;;;;;17.60;5.70;;;;;;;29.80;48.37;97513.00;67749;1279;1016492;-64
2023/07/25 18:08:51;;;;;;;20.30;5.70;;;;;;;29.63;48.74;97522.09;67769;1279;1016227;-64
2023/07/25 18:11:53;;;;;;;18.30;5.90;;;;;;;29.56;48.73;97524.97;67779;1279;1016474;-65
2023/07/25 18:14:56;;;;;;;18.10;6.30;;;;;;;29.98;47.92;97525.39;67819;1279;1016276;-65
2023/07/25 18:17:58;;;;;;;19.90;6.80;;;;;;;30.15;47.44;97525.98;67732;1279;1016314;-65
2023/07/25 18:21:01;;;;;;;21.60;6.70;;;;;;;29.88;47.63;97522.95;67750;1279;1016402;-65
2023/07/25 18:24:03;;;;;;;22.10;7.60;;;;;;;29.36;48.75;97525.85;67732;1279;1016507;-65
2023/07/25 18:27:06;;;;;;;21.60;7.70;;;;;;;29.15;49.18;97529.09;67815;1279;1016323;-65
2023/07/25 18:30:08;;;;;;;21.00;7.50;;;;;;;29.05;49.23;97535.94;67811;1279;1016899;-64
2023/07/25 18:33:10;;;;;;;22.60;7.30;;;;;;;28.98;49.53;97547.13;67761;1279;1016330;-64
2023/07/25 18:36:13;;;;;;;19.20;7.10;;;;;;;28.83;49.70;97548.45;67747;1279;1016936;-64
2023/07/25 18:39:15;;;;;;;19.90;7.20;;;;;;;28.76;49.80;97553.36;67619;1279;1016481;-64
2023/07/25 18:42:18;;;;;;;19.90;7.00;;;;;;;28.93;49.52;97558.16;67787;1279;1016610;-65
2023/07/25 18:45:20;;;;;;;22.00;7.20;;;;;;;28.79;49.63;97552.15;67792;1279;1018953;-65
2023/07/25 18:48:23;;;;;;;21.90;7.80;;;;;;;28.80;49.57;97552.83;67738;1279;1016160;-65
2023/07/25 18:51:26;;;;;;;24.20;7.50;;;;;;;28.89;49.47;97555.41;67750;1279;1018033;-65
2023/07/25 18:54:29;;;;;;;22.80;7.40;;;;;;;28.54;50.25;97557.02;67768;1279;1016323;-65
2023/07/25 18:57:31;;;;;;;19.30;7.20;;;;;;;28.40;50.47;97560.34;67738;1279;1016384;-65
2023/07/25 19:00:33;;;;;;;21.60;7.00;;;;;;;28.45;50.50;97559.36;67745;1279;1016491;-65
2023/07/25 19:03:36;;;;;;;19.00;6.90;;;;;;;28.66;49.92;97561.58;67785;1279;1016369;-65
2023/07/25 19:06:38;;;;;;;20.70;7.20;;;;;;;28.56;50.09;97560.55;67790;1279;1016353;-64
2023/07/25 19:09:41;;;;;;;20.50;6.70;;;;;;;28.65;49.79;97552.98;67802;1279;1016445;-63
2023/07/25 19:12:43;;;;;;;21.60;6.70;;;;;;;28.76;49.65;97555.23;67774;1279;1016115;-65
2023/07/25 19:15:45;;;;;;;19.60;6.50;;;;;;;28.66;49.88;97563.46;67751;1279;1016330;-64
2023/07/25 19:18:48;;;;;;;19.70;6.50;;;;;;;28.60;49.97;97561.63;67763;1279;1016484;-65
2023/07/25 19:21:50;;;;;;;19.00;6.10;;;;;;;28.15;51.14;97572.57;67836;1279;1016422;-64
2023/07/25 19:24:52;;;;;;;19.10;6.70;;;;;;;27.94;51.62;97575.08;67810;1279;1016453;-65
2023/07/25 19:27:55;;;;;;;;;;;;;;;27.92;51.67;97576.64;67764;1279;1016388;-65
2023/07/25 19:30:57;;;;;;;;;;;;;;;28.14;51.27;97578.73;67684;1279;1016292;-66
2023/07/25 19:34:00;;;;;;;19.30;6.60;;;;;;;28.21;51.06;97585.15;67768;1279;1016425;-64
2023/07/25 19:37:02;;;;;;;;;;;;;;;28.28;50.79;97586.20;67755;1279;1016452;-64
2023/07/25 19:40:04;;;;;;;19.90;6.50;;;;;;;27.98;51.63;97587.14;67807;1279;1016122;-65
2023/07/25 19:43:07;;;;;;;;;;;;;;;27.95;51.73;97587.38;67808;1279;1018738;-64
2023/07/25 19:46:10;;;;;;;20.20;7.10;;;;;;;28.05;51.17;97592.45;67774;1279;1018420;-65
2023/07/25 19:49:12;;;;;;;20.10;6.70;;;;;;;27.96;51.52;97594.31;67755;1279;1017812;-65
2023/07/25 19:52:14;;;;;;;19.80;6.40;;;;;;;28.06;51.09;97590.17;67778;1279;1016188;-65
2023/07/25 19:55:17;;;;;;;21.40;7.00;;;;;;;28.17;50.76;97587.80;67772;1279;1018605;-65
2023/07/25 19:58:19;;;;;;;;;;;;;;;28.08;50.64;97584.98;67799;1279;1016246;-64
2023/07/25 20:01:21;;;;;;;;;;;;;;;27.75;51.33;97584.98;67759;1279;1016425;-64
2023/07/25 20:04:24;;;;;;;20.30;6.90;;;;;;;27.94;50.47;97586.45;67759;1279;1016288;-64
2023/07/25 20:07:26;;;;;;;17.80;6.50;;;;;;;27.97;50.39;97585.00;67774;1279;1016438;-65
2023/07/25 20:10:29;;;;;;;;;;;;;;;27.74;51.05;97578.24;67835;1279;1015989;-65
2023/07/25 20:13:31;;;;;;;22.90;8.00;;;;;;;27.67;50.92;97573.92;67777;1279;1016481;-65
2023/07/25 20:16:34;;;;;;;21.00;7.20;;;;;;;27.51;51.52;97575.25;67778;1279;1016391;-64
2023/07/25 20:19:36;;;;;;;27.00;8.10;;;;;;;27.63;51.66;97578.48;67761;1279;1016274;-65
2023/07/25 20:22:39;;;;;;;21.90;7.60;;;;;;;27.89;50.77;97579.89;67770;1279;1016474;-65
2023/07/25 20:25:41;;;;;;;21.00;7.70;;;;;;;27.92;50.80;97588.88;67772;1279;1016347;-64
2023/07/25 20:28:44;;;;;;;;;;;;;;;27.86;51.00;97593.48;67768;1279;1016420;-63
2023/07/25 20:31:46;;;;;;;23.20;8.00;;;;;;;27.90;50.96;97591.38;67742;1279;1016361;-65
2023/07/25 20:34:48;;;;;;;23.30;7.70;;;;;;;27.90;51.06;97594.36;67727;1279;1016209;-65
2023/07/25 20:37:51;;;;;;;23.80;8.20;;;;;;;27.95;51.02;97597.95;67770;1279;1016147;-65
2023/07/25 20:40:53;;;;;;;;;;;;;;;27.88;51.24;97601.16;67793;1279;1016418;-64
2023/07/25 20:43:56;;;;;;;20.80;8.10;;;;;;;27.82;51.35;97596.62;67757;1279;1015984;-65
2023/07/25 20:46:59;;;;;;;21.20;7.20;;;;;;;27.77;51.32;97588.55;67775;1279;1016259;-65
2023/07/25 20:50:04;;;;;;;24.40;7.20;;;;;;;27.26;52.06;97588.42;67775;1279;1016135;-65
2023/07/25 20:53:06;;;;;;;19.90;7.10;;;;;;;26.87;52.90;97591.85;67747;1279;1016544;-65
2023/07/25 20:56:09;;;;;;;24.00;7.70;;;;;;;26.87;52.85;97592.06;67750;1279;1016007;-65
2023/07/25 20:59:13;;;;;;;23.10;7.00;;;;;;;26.84;52.67;97589.52;67712;1279;1016153;-64
2023/07/25 21:02:16;;;;;;;21.10;7.10;;;;;;;26.89;52.28;97588.10;67788;1279;1016266;-64
2023/07/25 21:05:18;;;;;;;;;;;;;;;26.88;52.44;97591.34;67745;1279;1016858;-65
2023/07/25 21:08:20;;;;;;;23.40;6.80;;;;;;;27.40;50.84;97592.69;67719;1279;1016471;-65
2023/07/25 21:11:23;;;;;;;;;;;;;;;27.55;50.39;97595.35;67780;1279;1018678;-65
2023/07/25 21:14:25;;;;;;;19.90;6.80;;;;;;;27.27;50.77;97596.77;67762;1279;1016422;-66
2023/07/25 21:17:27;;;;;;;;;;;;;;;27.06;51.27;97598.05;67768;1279;1016337;-65
2023/07/25 21:20:30;;;;;;;24.20;7.30;;;;;;;26.95;51.37;97597.83;67772;1279;1016402;-65
2023/07/25 21:23:32;;;;;;;23.60;7.30;;;;;;;27.05;50.95;97597.48;67733;1279;1016437;-65
2023/07/25 21:26:35;;;;;;;;;;;;;;;27.28;50.20;97599.86;67739;1279;1016497;-65
2023/07/25 21:29:37;;;;;;;21.20;6.80;;;;;;;27.17;50.49;97616.45;67759;1279;1016482;-65
2023/07/25 21:32:39;;;;;;;;;;;;;;;27.11;50.31;97619.44;67804;1279;1016254;-65
2023/07/25 21:35:42;;;;;;;20.90;7.20;;;;;;;27.14;50.01;97616.68;67796;1279;1016446;-64
2023/07/25 21:38:44;;;;;;;;;;;;;;;26.79;50.76;97624.59;67767;1279;1016519;-65
2023/07/25 21:41:47;;;;;;;;;;;;;;;26.79;50.61;97625.06;67765;1279;1016461;-65
2023/07/25 21:44:49;;;;;;;22.90;7.30;;;;;;;26.71;50.77;97625.86;67745;1264;1016515;-64
2023/07/25 21:47:51;;;;;;;;;;;;;;;26.53;51.33;97624.25;67771;1279;1016858;-65
2023/07/25 21:50:54;;;;;;;22.20;8.10;;;;;;;26.78;50.72;97619.18;67763;1279;1016497;-65
2023/07/25 21:53:56;;;;;;;;;;;;;;;26.63;51.05;97630.67;67802;1279;1016711;-65
2023/07/25 21:56:58;;;;;;;23.30;8.10;;;;;;;26.43;51.40;97633.63;67741;1279;1016395;-65
2023/07/25 22:00:01;;;;;;;;;;;;;;;26.20;51.86;97634.42;67749;1279;1016191;-64
2023/07/25 22:03:03;;;;;;;21.90;8.00;;;;;;;26.39;51.55;97633.31;67743;1279;1016113;-65